Time;durP1;ratioP1;P1;durP2;ratioP2;P2;SDS_P1;SDS_P2;PMS_P1;PMS_P2;Temp;Humidity;BMP_temperature;BMP_pressure;BME280_temperature;BME280_humidity;BME280_pressure;Samples;Min_cycle;Max_cycle;Signal;HPM_P1;HPM_P2
2023/06/25 00:01:30;;;;;;;11.57;10.27;;;23.90;92.00;;;;;;5030713;28;20018;-55
2023/06/25 00:03:55;;;;;;;11.07;9.98;;;23.90;92.20;;;;;;5030440;28;20036;-52
2023/06/25 00:06:22;;;;;;;12.13;10.23;;;24.00;92.30;;;;;;5030739;28;20033;-55
2023/06/25 00:08:48;;;;;;;11.70;10.30;;;24.00;92.50;;;;;;5030669;28;20500;-54
2023/06/25 00:11:14;;;;;;;11.07;9.98;;;24.00;92.70;;;;;;5030983;28;20363;-54
2023/06/25 00:13:39;;;;;;;10.95;9.18;;;24.00;92.70;;;;;;5030669;28;20082;-52
2023/06/25 00:16:07;;;;;;;13.82;11.50;;;24.00;92.80;;;;;;5030606;28;20036;-55
2023/06/25 00:18:33;;;;;;;11.95;10.52;;;24.00;93.10;;;;;;5030775;28;20163;-55
2023/06/25 00:21:00;;;;;;;10.43;9.35;;;24.00;93.10;;;;;;5030527;28;20389;-55
2023/06/25 00:23:25;;;;;;;11.50;10.23;;;24.00;93.10;;;;;;5030804;28;20024;-55
2023/06/25 00:25:51;;;;;;;11.65;9.77;;;24.00;93.30;;;;;;5030508;28;20109;-55
2023/06/25 00:28:17;;;;;;;11.13;10.00;;;24.10;93.40;;;;;;5030783;28;20056;-55
2023/06/25 00:30:42;;;;;;;11.77;10.02;;;24.10;93.30;;;;;;5031163;28;20036;-54
2023/06/25 00:33:08;;;;;;;13.13;10.20;;;24.10;93.40;;;;;;5034201;28;20029;-54
2023/06/25 00:35:49;;;;;;;11.45;10.05;;;24.20;93.50;;;;;;5034227;28;20104;-54
2023/06/25 00:38:15;;;;;;;;;;;24.10;93.10;;;;;;5034498;28;20104;-55
2023/06/25 00:40:41;;;;;;;11.90;9.18;;;24.10;92.80;;;;;;5034037;28;20002;-55
2023/06/25 00:43:06;;;;;;;10.65;9.35;;;24.10;93.40;;;;;;5034175;28;20032;-55
2023/06/25 00:45:33;;;;;;;10.10;9.07;;;24.10;93.50;;;;;;5033895;28;20489;-54
2023/06/25 00:47:59;;;;;;;10.65;8.90;;;24.10;93.60;;;;;;5034053;28;20101;-55
2023/06/25 00:50:25;;;;;;;12.88;9.57;;;24.10;93.70;;;;;;5033866;28;20528;-54
2023/06/25 00:52:51;;;;;;;10.07;8.88;;;24.10;93.80;;;;;;5033790;28;20033;-54
2023/06/25 00:55:18;;;;;;;10.73;9.27;;;24.10;93.90;;;;;;5033563;28;20053;-54
2023/06/25 00:57:44;;;;;;;10.77;9.60;;;24.20;94.00;;;;;;5033566;28;20036;-54
2023/06/25 01:00:14;;;;;;;12.88;10.30;;;24.10;94.00;;;;;;5033628;28;20022;-55
2023/06/25 01:03:07;;;;;;;12.43;9.73;;;24.20;94.00;;;;;;5033609;28;20438;-54
2023/06/25 01:05:39;;;;;;;12.13;9.07;;;24.10;93.80;;;;;;5033340;28;20050;-55
2023/06/25 01:08:09;;;;;;;10.75;9.65;;;24.10;94.10;;;;;;5033808;28;20025;-55
2023/06/25 01:10:36;;;;;;;11.38;9.40;;;24.20;94.20;;;;;;5033678;28;20033;-53
2023/06/25 01:13:02;;;;;;;12.30;9.10;;;24.10;94.40;;;;;;5033570;28;20493;-55
2023/06/25 01:15:27;;;;;;;12.50;10.48;;;24.10;94.60;;;;;;5033260;28;20033;-54
2023/06/25 01:17:54;;;;;;;11.88;9.32;;;24.10;94.70;;;;;;5033292;28;20440;-52
2023/06/25 01:20:21;;;;;;;12.85;9.75;;;24.10;94.90;;;;;;5033387;28;20474;-54
2023/06/25 01:22:48;;;;;;;11.23;9.48;;;24.10;95.10;;;;;;5033432;28;20087;-54
2023/06/25 01:25:14;;;;;;;14.63;10.63;;;24.10;95.20;;;;;;5033386;28;20029;-52
2023/06/25 01:27:40;;;;;;;14.57;10.65;;;24.10;95.30;;;;;;5033412;28;20478;-55
2023/06/25 01:30:06;;;;;;;13.38;10.80;;;24.10;95.30;;;;;;5033048;28;20033;-54
2023/06/25 01:32:32;;;;;;;13.57;9.38;;;24.00;95.40;;;;;;5033006;28;20496;-55
2023/06/25 01:34:57;;;;;;;12.65;8.90;;;24.00;95.50;;;;;;5032929;28;20037;-55
2023/06/25 01:37:23;;;;;;;19.48;10.88;;;24.00;95.70;;;;;;5032829;28;20052;-54
2023/06/25 01:39:51;;;;;;;10.68;8.10;;;23.90;95.80;;;;;;5032786;28;20037;-55
2023/06/25 01:42:17;;;;;;;13.30;7.97;;;23.90;94.80;;;;;;5032330;28;20029;-54
2023/06/25 01:44:43;;;;;;;13.25;8.45;;;23.70;95.10;;;;;;5032752;28;20500;-53
2023/06/25 01:47:09;;;;;;;13.50;7.88;;;23.70;95.40;;;;;;5032945;28;20029;-52
2023/06/25 01:49:34;;;;;;;8.85;6.82;;;23.50;94.40;;;;;;5032617;28;20492;-54
2023/06/25 01:52:01;;;;;;;7.88;6.95;;;23.40;94.50;;;;;;5032809;28;20037;-54
2023/06/25 01:54:27;;;;;;;12.15;7.25;;;23.30;94.80;;;;;;5032820;28;20029;-51
2023/06/25 01:56:53;;;;;;;11.98;7.20;;;23.20;95.00;;;;;;5032494;28;20029;-54
2023/06/25 01:59:18;;;;;;;7.45;6.53;;;23.10;95.50;;;;;;5032735;28;20487;-54
2023/06/25 02:01:44;;;;;;;8.10;6.50;;;23.00;95.70;;;;;;5032475;28;20060;-53
2023/06/25 02:04:09;;;;;;;7.43;6.50;;;22.90;95.40;;;;;;5032163;28;20117;-54
2023/06/25 02:06:35;;;;;;;9.02;6.95;;;22.90;95.90;;;;;;5032451;28;20029;-54
2023/06/25 02:09:01;;;;;;;9.75;7.00;;;22.90;96.60;;;;;;5032250;28;20056;-54
2023/06/25 02:11:26;;;;;;;10.07;7.22;;;22.90;96.90;;;;;;5032282;28;20432;-55
2023/06/25 02:13:53;;;;;;;9.50;7.13;;;22.90;97.10;;;;;;5032677;28;20064;-53
2023/06/25 02:16:18;;;;;;;8.60;6.90;;;22.90;97.50;;;;;;5032068;28;20030;-54
2023/06/25 02:18:44;;;;;;;7.85;6.57;;;22.90;97.50;;;;;;5032487;28;20088;-54
2023/06/25 02:21:10;;;;;;;8.68;6.55;;;22.90;97.40;;;;;;5032152;28;20063;-54
2023/06/25 02:23:36;;;;;;;7.60;6.70;;;22.90;97.50;;;;;;5031990;28;20029;-54
2023/06/25 02:26:01;;;;;;;8.65;6.60;;;22.90;97.30;;;;;;5031889;28;20393;-52
2023/06/25 02:28:27;;;;;;;10.00;6.60;;;22.90;97.30;;;;;;5031935;28;20025;-54
2023/06/25 02:30:52;;;;;;;10.68;7.10;;;23.00;97.40;;;;;;5031911;28;20021;-54
2023/06/25 02:33:18;;;;;;;10.88;7.80;;;23.00;97.70;;;;;;5031930;28;20029;-55
2023/06/25 02:35:44;;;;;;;11.15;7.53;;;23.00;97.70;;;;;;5032254;28;20083;-54
2023/06/25 02:38:09;;;;;;;11.98;8.00;;;22.90;97.80;;;;;;5032106;28;20029;-54
2023/06/25 02:40:35;;;;;;;10.23;7.28;;;23.00;97.90;;;;;;5031217;28;20420;-54
2023/06/25 02:43:01;;;;;;;9.50;7.15;;;23.00;98.40;;;;;;5031366;28;20029;-54
2023/06/25 02:45:27;;;;;;;9.55;7.43;;;23.00;98.60;;;;;;5031620;28;20037;-53
2023/06/25 02:47:52;;;;;;;11.88;7.50;;;22.90;98.90;;;;;;5030827;28;20032;-54
2023/06/25 02:50:18;;;;;;;10.98;6.85;;;22.90;98.70;;;;;;5030362;28;20481;-55
2023/06/25 02:52:44;;;;;;;8.93;6.68;;;22.90;98.80;;;;;;5032023;28;20564;-54
2023/06/25 02:55:10;;;;;;;7.78;6.13;;;22.80;98.60;;;;;;5030820;28;20427;-52
2023/06/25 02:57:35;;;;;;;7.95;7.15;;;22.80;98.40;;;;;;5031473;28;20036;-54
2023/06/25 03:00:04;;;;;;;9.48;6.47;;;22.80;98.80;;;;;;5031519;28;20026;-54
2023/06/25 03:02:30;;;;;;;6.68;5.82;;;22.70;98.90;;;;;;5031461;28;20026;-54
2023/06/25 03:04:56;;;;;;;8.05;5.57;;;22.70;98.00;;;;;;5031329;28;20063;-53
2023/06/25 03:07:22;;;;;;;6.95;4.78;;;22.70;97.40;;;;;;5031410;28;20068;-55
2023/06/25 03:09:47;;;;;;;5.57;4.30;;;22.70;97.10;;;;;;5031583;28;20029;-53
2023/06/25 03:12:13;;;;;;;7.25;5.10;;;22.70;96.70;;;;;;5031071;28;20036;-51
2023/06/25 03:14:40;;;;;;;6.57;5.20;;;22.70;96.60;;;;;;5031026;28;20112;-52
2023/06/25 03:17:06;;;;;;;7.57;5.18;;;22.70;96.40;;;;;;5031077;28;20550;-54
2023/06/25 03:19:32;;;;;;;7.50;5.32;;;22.70;96.70;;;;;;5031491;28;20053;-54
2023/06/25 03:21:57;;;;;;;7.97;5.50;;;22.70;96.80;;;;;;5031227;28;20049;-54
2023/06/25 03:24:23;;;;;;;8.15;6.28;;;22.70;97.30;;;;;;5031093;28;20025;-54
2023/06/25 03:26:49;;;;;;;8.23;5.82;;;22.70;97.30;;;;;;5031164;28;20040;-53
2023/06/25 03:29:14;;;;;;;10.43;5.10;;;22.70;97.40;;;;;;5031060;28;20382;-54
2023/06/25 03:31:40;;;;;;;6.55;5.75;;;22.60;97.20;;;;;;5031183;28;20108;-54
2023/06/25 03:34:06;;;;;;;7.32;5.85;;;22.70;97.20;;;;;;5030999;28;20029;-55
2023/06/25 03:36:32;;;;;;;6.10;5.50;;;22.70;97.50;;;;;;5030872;28;20037;-53
2023/06/25 03:38:58;;;;;;;7.30;6.05;;;22.70;97.90;;;;;;5030957;28;20017;-54
2023/06/25 03:41:24;;;;;;;7.65;5.95;;;22.70;98.00;;;;;;5031276;28;20033;-54
2023/06/25 03:43:50;;;;;;;8.10;6.13;;;22.70;98.10;;;;;;5031249;28;20033;-53
2023/06/25 03:46:16;;;;;;;7.13;5.75;;;22.60;98.20;;;;;;5030911;28;20032;-54
2023/06/25 03:48:42;;;;;;;8.30;6.25;;;22.70;98.60;;;;;;5030876;28;20095;-54
2023/06/25 03:51:11;;;;;;;6.90;5.97;;;22.70;98.30;;;;;;5031091;28;20155;-53
2023/06/25 03:53:39;;;;;;;6.82;5.97;;;22.70;98.20;;;;;;5030885;28;20029;-55
2023/06/25 03:56:05;;;;;;;8.32;5.78;;;22.70;98.10;;;;;;5030711;28;20033;-55
2023/06/25 03:58:30;;;;;;;6.63;5.45;;;22.70;98.30;;;;;;5030841;28;20036;-54
2023/06/25 04:00:56;;;;;;;6.47;5.70;;;22.70;98.40;;;;;;5030751;28;20531;-55
2023/06/25 04:03:22;;;;;;;7.15;5.78;;;22.70;98.70;;;;;;5030778;28;20522;-54
2023/06/25 04:05:48;;;;;;;7.32;5.90;;;22.70;99.00;;;;;;5032385;28;20054;-55
2023/06/25 04:08:14;;;;;;;8.13;5.80;;;22.70;98.90;;;;;;5034627;28;20424;-55
2023/06/25 04:10:40;;;;;;;6.68;6.00;;;22.70;99.00;;;;;;5034566;28;20025;-54
2023/06/25 04:13:06;;;;;;;7.25;5.75;;;22.70;99.20;;;;;;5034606;28;20022;-54
2023/06/25 04:15:32;;;;;;;6.85;5.40;;;22.70;99.40;;;;;;5034341;28;20028;-54
2023/06/25 04:17:58;;;;;;;7.20;5.70;;;22.70;99.00;;;;;;5034311;28;20017;-54
2023/06/25 04:20:26;;;;;;;9.70;8.70;;;22.70;98.80;;;;;;5034258;28;20374;-54
2023/06/25 04:22:52;;;;;;;10.35;9.30;;;22.70;98.80;;;;;;5034422;28;20033;-53
2023/06/25 04:25:17;;;;;;;10.05;9.05;;;22.70;99.10;;;;;;5034092;28;20033;-53
2023/06/25 04:27:43;;;;;;;12.15;10.85;;;22.70;99.20;;;;;;5034109;28;20056;-54
2023/06/25 04:30:10;;;;;;;14.73;11.20;;;22.70;98.80;;;;;;5034080;28;20026;-55
2023/06/25 04:32:35;;;;;;;12.07;10.88;;;22.60;98.50;;;;;;5034441;28;20036;-54
2023/06/25 04:35:01;;;;;;;12.13;10.98;;;22.60;98.40;;;;;;5034330;28;20030;-55
2023/06/25 04:37:27;;;;;;;12.07;10.88;;;22.50;98.20;;;;;;5033928;28;20412;-54
2023/06/25 04:39:53;;;;;;;12.25;10.98;;;22.50;97.80;;;;;;5033863;28;20028;-50
2023/06/25 04:42:18;;;;;;;12.85;11.38;;;22.40;97.80;;;;;;5033912;28;20087;-53
2023/06/25 04:44:44;;;;;;;12.25;11.05;;;22.40;97.80;;;;;;5033827;28;20041;-55
2023/06/25 04:47:09;;;;;;;12.57;11.00;;;22.40;97.40;;;;;;5033787;28;20477;-55
2023/06/25 04:49:35;;;;;;;11.35;10.15;;;22.30;97.50;;;;;;5033719;28;20389;-55
2023/06/25 04:52:01;;;;;;;11.73;10.52;;;22.20;97.80;;;;;;5033663;28;20033;-54
2023/06/25 04:54:26;;;;;;;11.55;10.13;;;22.20;97.90;;;;;;5033684;28;20029;-54
2023/06/25 04:56:52;;;;;;;11.65;9.93;;;22.20;98.10;;;;;;5033426;28;20029;-54
2023/06/25 04:59:17;;;;;;;11.95;10.10;;;22.10;98.00;;;;;;5033637;28;20029;-52
2023/06/25 05:01:43;;;;;;;12.43;11.13;;;22.10;98.10;;;;;;5033632;28;20025;-53
2023/06/25 05:04:09;;;;;;;11.85;10.75;;;22.10;98.40;;;;;;5033523;28;20417;-54
2023/06/25 05:06:34;;;;;;;12.20;10.90;;;22.10;98.20;;;;;;5033543;28;20029;-54
2023/06/25 05:09:00;;;;;;;12.77;11.48;;;22.10;98.70;;;;;;5033412;28;20042;-52
2023/06/25 05:11:26;;;;;;;11.35;10.25;;;22.00;98.70;;;;;;5033401;28;20108;-52
2023/06/25 05:13:51;;;;;;;11.68;10.35;;;22.00;98.50;;;;;;5033326;28;20029;-55
2023/06/25 05:16:17;;;;;;;12.57;10.77;;;22.10;98.50;;;;;;5032966;28;20389;-55
2023/06/25 05:18:42;;;;;;;12.52;11.32;;;22.00;98.40;;;;;;5032970;28;20100;-54
2023/06/25 05:21:08;;;;;;;11.98;10.75;;;22.00;98.70;;;;;;5033222;28;20018;-55
2023/06/25 05:24:00;;;;;;;12.38;10.88;;;22.10;98.60;;;;;;5033329;28;20036;-55
2023/06/25 05:26:27;;;;;;;12.15;10.48;;;22.10;98.10;;;;;;5033316;28;20037;-53
2023/06/25 05:28:52;;;;;;;13.38;11.57;;;22.20;98.50;;;;;;5033338;28;20067;-54
2023/06/25 05:31:18;;;;;;;12.70;11.40;;;22.20;98.30;;;;;;5032972;28;20021;-54
2023/06/25 05:33:43;;;;;;;13.00;11.27;;;22.30;98.50;;;;;;5032926;28;20033;-54
2023/06/25 05:36:12;;;;;;;14.93;11.88;;;22.30;98.30;;;;;;5032861;28;20037;-55
2023/06/25 05:38:37;;;;;;;15.40;12.18;;;22.30;98.10;;;;;;5032864;28;20107;-55
2023/06/25 05:41:03;;;;;;;13.45;12.05;;;22.40;98.00;;;;;;5032799;28;20053;-54
2023/06/25 05:43:28;;;;;;;12.50;11.30;;;22.40;97.60;;;;;;5033064;28;20087;-55
2023/06/25 05:45:54;;;;;;;13.25;11.93;;;22.40;97.50;;;;;;5032860;28;20412;-52
2023/06/25 05:48:20;;;;;;;12.75;11.45;;;22.50;97.60;;;;;;5032833;28;20535;-54
2023/06/25 05:50:45;;;;;;;12.60;11.30;;;22.50;97.30;;;;;;5032650;28;20296;-53
2023/06/25 05:53:11;;;;;;;13.38;11.68;;;22.50;96.80;;;;;;5032763;28;20498;-52
2023/06/25 05:55:37;;;;;;;13.95;12.48;;;22.60;96.70;;;;;;5032544;28;20443;-53
2023/06/25 05:58:02;;;;;;;13.45;12.15;;;22.60;97.10;;;;;;5032522;28;20026;-54
2023/06/25 06:00:28;;;;;;;13.05;11.70;;;22.70;97.20;;;;;;5032658;28;20022;-54
2023/06/25 06:02:53;;;;;;;13.30;11.90;;;22.70;97.10;;;;;;5032467;28;20030;-54
2023/06/25 06:05:19;;;;;;;14.77;12.23;;;22.80;97.10;;;;;;5032137;28;20046;-55
2023/06/25 06:07:45;;;;;;;12.98;11.63;;;22.80;97.40;;;;;;5032244;28;20037;-53
2023/06/25 06:10:15;;;;;;;12.68;11.38;;;22.80;97.40;;;;;;5032074;28;20037;-55
2023/06/25 06:12:41;;;;;;;;;;;22.90;97.50;;;;;;5030697;28;20075;-55
2023/06/25 06:15:07;;;;;;;11.73;10.57;;;23.00;96.90;;;;;;5030541;28;19940;-53
2023/06/25 06:17:33;;;;;;;12.07;10.80;;;23.00;97.00;;;;;;5031284;28;20108;-54
2023/06/25 06:19:58;;;;;;;12.18;10.88;;;23.10;96.40;;;;;;5031374;28;20113;-55
2023/06/25 06:22:24;;;;;;;11.88;10.73;;;23.10;96.30;;;;;;5031889;28;20032;-54
2023/06/25 06:24:49;;;;;;;13.63;11.10;;;23.20;96.20;;;;;;5031728;28;20084;-55
2023/06/25 06:27:15;;;;;;;12.27;10.95;;;23.20;95.90;;;;;;5031954;28;20384;-55
2023/06/25 06:29:41;;;;;;;12.40;10.85;;;23.30;95.50;;;;;;5032127;28;20037;-55
2023/06/25 06:32:07;;;;;;;11.75;10.52;;;23.30;95.20;;;;;;5031909;28;20029;-54
2023/06/25 06:34:33;;;;;;;11.77;10.30;;;23.30;95.30;;;;;;5032154;28;20449;-55
2023/06/25 06:36:59;;;;;;;12.45;10.98;;;23.40;95.20;;;;;;5031080;28;20033;-54
2023/06/25 06:39:24;;;;;;;13.38;10.77;;;23.50;95.30;;;;;;5031920;28;20018;-54
2023/06/25 06:41:50;;;;;;;11.32;9.88;;;23.60;94.80;;;;;;5031863;28;20045;-55
2023/06/25 06:44:17;;;;;;;12.55;10.75;;;23.60;94.50;;;;;;5031775;28;20500;-55
2023/06/25 06:46:44;;;;;;;11.73;10.50;;;23.70;95.20;;;;;;5031910;28;20101;-54
2023/06/25 06:49:10;;;;;;;11.90;10.45;;;23.80;95.10;;;;;;5031868;28;20030;-55
2023/06/25 06:51:37;;;;;;;12.70;10.80;;;24.00;94.60;;;;;;5031937;28;20033;-55
2023/06/25 06:54:04;;;;;;;11.38;10.18;;;24.10;93.20;;;;;;5031942;28;20037;-55
2023/06/25 06:56:30;;;;;;;10.90;9.80;;;24.10;92.50;;;;;;5031436;28;20026;-55
2023/06/25 06:58:55;;;;;;;12.15;10.60;;;24.20;92.50;;;;;;5031400;28;20385;-55
2023/06/25 07:01:21;;;;;;;11.00;9.80;;;24.30;91.70;;;;;;5031408;28;20022;-55
2023/06/25 07:03:47;;;;;;;10.98;9.88;;;24.30;91.70;;;;;;5031298;28;20412;-55
2023/06/25 07:06:12;;;;;;;11.43;10.23;;;24.40;91.40;;;;;;5031442;28;20124;-55
2023/06/25 07:08:38;;;;;;;11.75;10.20;;;24.50;90.90;;;;;;5031515;28;20064;-55
2023/06/25 07:11:05;;;;;;;12.25;10.43;;;24.60;90.50;;;;;;5031627;28;20571;-55
2023/06/25 07:13:32;;;;;;;11.32;10.13;;;24.60;90.30;;;;;;5031630;28;20037;-54
2023/06/25 07:15:58;;;;;;;11.73;10.52;;;24.70;90.10;;;;;;5031070;28;20038;-54
2023/06/25 07:18:23;;;;;;;12.38;10.60;;;24.80;90.10;;;;;;5031288;28;20474;-55
2023/06/25 07:20:49;;;;;;;11.02;9.93;;;24.90;90.00;;;;;;5031676;28;20037;-55
2023/06/25 07:23:15;;;;;;;11.90;10.63;;;25.00;90.20;;;;;;5031024;28;20029;-52
2023/06/25 07:25:41;;;;;;;11.45;9.70;;;25.00;89.60;;;;;;5031066;28;20481;-54
2023/06/25 07:28:09;;;;;;;11.57;10.48;;;25.00;89.00;;;;;;5031024;28;20433;-55
2023/06/25 07:30:34;;;;;;;11.38;10.18;;;25.00;88.50;;;;;;5031320;28;20101;-55
2023/06/25 07:33:00;;;;;;;11.00;9.88;;;25.00;88.90;;;;;;5031266;28;20466;-55
2023/06/25 07:35:26;;;;;;;11.60;10.27;;;25.00;88.30;;;;;;5031092;28;20037;-53
2023/06/25 07:37:51;;;;;;;11.13;10.02;;;25.00;87.80;;;;;;5031010;28;20025;-55
2023/06/25 07:40:17;;;;;;;11.70;10.25;;;25.00;87.10;;;;;;5032134;28;20113;-55
2023/06/25 07:42:43;;;;;;;11.52;10.32;;;25.00;86.60;;;;;;5035235;28;20026;-55
2023/06/25 07:45:09;;;;;;;12.23;10.38;;;25.00;86.10;;;;;;5035113;28;20113;-52
2023/06/25 07:47:35;;;;;;;12.45;11.10;;;25.00;86.10;;;;;;5035050;28;20059;-57
2023/06/25 07:50:01;;;;;;;13.20;11.80;;;25.00;86.20;;;;;;5034894;28;20393;-57
2023/06/25 07:52:27;;;;;;;11.70;10.20;;;25.10;85.10;;;;;;5034940;28;20104;-56
2023/06/25 07:54:53;;;;;;;12.68;11.10;;;25.10;84.80;;;;;;5035183;28;20029;-57
2023/06/25 07:57:19;;;;;;;12.23;10.95;;;25.20;85.60;;;;;;5034728;28;20393;-54
2023/06/25 07:59:45;;;;;;;13.15;11.55;;;25.10;84.50;;;;;;5034830;28;20029;-56
2023/06/25 08:02:10;;;;;;;12.88;10.90;;;25.20;84.90;;;;;;5034539;28;20029;-56
2023/06/25 08:04:36;;;;;;;12.68;11.38;;;25.10;85.10;;;;;;5034555;28;20116;-56
2023/06/25 08:07:02;;;;;;;12.18;10.77;;;25.10;85.40;;;;;;5034559;28;20025;-56
2023/06/25 08:09:27;;;;;;;11.55;10.35;;;25.10;85.40;;;;;;5034615;28;20036;-52
2023/06/25 08:11:53;;;;;;;12.02;10.73;;;25.10;85.60;;;;;;5034350;28;20098;-56
2023/06/25 08:14:19;;;;;;;13.25;11.52;;;25.10;85.80;;;;;;5034464;28;20131;-55
2023/06/25 08:16:44;;;;;;;12.02;10.73;;;25.10;85.90;;;;;;5034473;28;20026;-57
2023/06/25 08:19:10;;;;;;;12.27;10.98;;;25.10;86.10;;;;;;5034450;28;20440;-56
2023/06/25 08:21:35;;;;;;;11.60;10.40;;;25.10;86.50;;;;;;5034335;28;20026;-55
2023/06/25 08:24:01;;;;;;;11.98;10.77;;;25.10;86.10;;;;;;5034199;28;20029;-56
2023/06/25 08:26:27;;;;;;;11.85;10.68;;;25.20;86.00;;;;;;5034560;28;20500;-56
2023/06/25 08:28:53;;;;;;;12.13;10.82;;;25.20;86.10;;;;;;5034007;28;20029;-55
2023/06/25 08:31:18;;;;;;;12.05;10.85;;;25.20;86.00;;;;;;5034269;28;20078;-56
2023/06/25 08:33:44;;;;;;;13.18;10.30;;;25.20;86.10;;;;;;5033930;28;20029;-56
2023/06/25 08:36:10;;;;;;;10.43;9.38;;;25.20;86.00;;;;;;5033926;28;20034;-53
2023/06/25 08:38:36;;;;;;;9.60;8.60;;;25.20;85.70;;;;;;5034055;28;20033;-56
2023/06/25 08:41:02;;;;;;;10.15;9.05;;;25.20;85.60;;;;;;5033952;28;20090;-55
2023/06/25 08:43:28;;;;;;;10.77;8.50;;;25.10;85.30;;;;;;5033829;28;20083;-55
2023/06/25 08:45:54;;;;;;;9.73;8.38;;;25.10;85.40;;;;;;5033731;28;20017;-56
2023/06/25 08:48:21;;;;;;;9.93;8.30;;;25.10;85.70;;;;;;5034014;28;20033;-56
2023/06/25 08:50:54;;;;;;;9.35;8.38;;;25.10;85.40;;;;;;5033912;28;20022;-56
2023/06/25 08:53:19;;;;;;;8.50;7.43;;;25.10;85.40;;;;;;5033197;28;20489;-56
2023/06/25 08:55:47;;;;;;;10.00;8.88;;;25.10;85.50;;;;;;5033682;28;20109;-56
2023/06/25 08:58:13;;;;;;;9.75;8.75;;;25.10;85.30;;;;;;5033648;28;20028;-54
2023/06/25 09:00:39;;;;;;;9.00;8.02;;;25.10;85.20;;;;;;5033670;28;20409;-56
2023/06/25 09:03:05;;;;;;;9.55;8.55;;;25.00;85.30;;;;;;5033537;28;20022;-56
2023/06/25 09:05:32;;;;;;;9.00;8.10;;;25.10;85.50;;;;;;5033566;28;20057;-56
2023/06/25 09:07:57;;;;;;;9.57;8.57;;;25.10;85.30;;;;;;5033846;28;20056;-55
2023/06/25 09:10:23;;;;;;;9.63;8.63;;;25.20;85.40;;;;;;5033432;28;20061;-55
2023/06/25 09:12:50;;;;;;;9.27;8.27;;;25.20;85.00;;;;;;5033896;28;20108;-56
2023/06/25 09:15:23;;;;;;;9.80;8.65;;;25.20;84.80;;;;;;5033243;28;20106;-56
2023/06/25 09:17:53;;;;;;;9.43;8.52;;;25.30;84.50;;;;;;5033547;28;20040;-55
2023/06/25 09:20:21;;;;;;;9.35;8.35;;;25.30;84.40;;;;;;5033218;28;20026;-56
2023/06/25 09:22:54;;;;;;;9.93;8.88;;;25.30;84.30;;;;;;5033638;28;20083;-53
2023/06/25 09:25:28;;;;;;;9.52;8.52;;;25.40;84.20;;;;;;5033150;28;20021;-56
2023/06/25 09:27:55;;;;;;;9.35;8.35;;;25.40;83.90;;;;;;5033221;28;20029;-53
2023/06/25 09:30:24;;;;;;;9.38;8.38;;;25.40;84.00;;;;;;5033231;28;20030;-56
2023/06/25 09:32:51;;;;;;;9.38;8.38;;;25.40;83.90;;;;;;5033216;28;20037;-56
2023/06/25 09:35:22;;;;;;;9.93;8.93;;;25.40;83.80;;;;;;5033100;28;20396;-55
2023/06/25 09:37:49;;;;;;;9.25;8.35;;;25.40;83.60;;;;;;5031335;28;20029;-54
2023/06/25 09:40:15;;;;;;;9.88;8.30;;;25.40;83.60;;;;;;5031581;28;20041;-53
2023/06/25 09:42:43;;;;;;;9.85;8.85;;;25.40;83.80;;;;;;5031508;28;20023;-53
2023/06/25 09:45:12;;;;;;;8.48;7.63;;;25.40;83.70;;;;;;5032497;28;20025;-53
2023/06/25 09:47:42;;;;;;;9.40;8.40;;;25.40;83.80;;;;;;5031962;28;20116;-54
2023/06/25 09:50:19;;;;;;;9.23;8.32;;;25.40;83.70;;;;;;5031906;28;20358;-55
2023/06/25 09:53:03;;;;;;;8.93;8.05;;;25.40;83.60;;;;;;5030256;28;20026;-54
2023/06/25 09:55:29;;;;;;;9.63;8.63;;;25.40;83.50;;;;;;5031065;28;20029;-55
2023/06/25 09:57:56;;;;;;;8.48;7.57;;;25.50;83.70;;;;;;5031283;28;20500;-56
2023/06/25 10:00:23;;;;;;;9.40;7.53;;;25.50;83.50;;;;;;5031756;28;20033;-56
2023/06/25 10:02:49;;;;;;;9.07;8.13;;;25.50;83.50;;;;;;5031588;28;20523;-55
2023/06/25 10:05:15;;;;;;;8.73;7.82;;;25.50;83.40;;;;;;5031707;28;20046;-56
2023/06/25 10:07:42;;;;;;;9.25;7.85;;;25.60;83.30;;;;;;5031723;28;20044;-56
2023/06/25 10:10:22;;;;;;;8.95;8.02;;;25.60;83.00;;;;;;5031456;28;20036;-54
2023/06/25 10:12:51;;;;;;;8.73;7.82;;;25.60;82.90;;;;;;5030610;28;20029;-55
2023/06/25 10:15:30;;;;;;;8.90;8.00;;;25.60;83.10;;;;;;5031310;28;20068;-54
2023/06/25 10:18:06;;;;;;;8.35;7.55;;;25.60;83.00;;;;;;5031781;28;20022;-56
2023/06/25 10:20:35;;;;;;;8.52;7.63;;;25.60;82.90;;;;;;5030045;28;20041;-56
2023/06/25 10:23:08;;;;;;;8.07;7.07;;;25.60;82.70;;;;;;5030090;28;20032;-55
2023/06/25 10:25:41;;;;;;;8.52;7.65;;;25.60;82.60;;;;;;5030251;28;20033;-55
2023/06/25 10:28:12;;;;;;;7.90;7.10;;;25.60;82.50;;;;;;5030774;28;20053;-56
2023/06/25 10:30:57;;;;;;;7.72;6.68;;;25.60;82.40;;;;;;5031334;28;20104;-53
2023/06/25 10:33:23;;;;;;;8.00;7.20;;;25.60;82.20;;;;;;5031897;28;20040;-56
2023/06/25 10:35:54;;;;;;;7.80;7.00;;;25.70;82.40;;;;;;5031995;28;20034;-55
2023/06/25 10:38:20;;;;;;;7.78;6.75;;;25.70;82.30;;;;;;5030955;28;20339;-56
2023/06/25 10:40:46;;;;;;;8.32;6.82;;;25.80;82.40;;;;;;5030193;28;20390;-55
2023/06/25 10:43:19;;;;;;;8.45;6.35;;;25.80;82.50;;;;;;5030979;28;20018;-56
2023/06/25 10:45:56;;;;;;;7.82;6.72;;;25.90;82.10;;;;;;5031353;28;20032;-56
2023/06/25 10:48:23;;;;;;;8.18;7.13;;;25.90;81.80;;;;;;5029750;28;20445;-55
2023/06/25 10:50:50;;;;;;;8.32;6.88;;;26.00;81.50;;;;;;5029777;28;20032;-55
2023/06/25 10:53:18;;;;;;;7.07;6.03;;;26.00;81.20;;;;;;5029892;28;20026;-56
2023/06/25 10:55:46;;;;;;;7.10;6.20;;;26.00;80.90;;;;;;5029883;28;20096;-56
2023/06/25 10:58:24;;;;;;;6.85;6.15;;;26.10;80.80;;;;;;5029492;28;20021;-56
2023/06/25 11:00:57;;;;;;;7.95;6.50;;;26.10;80.70;;;;;;5030803;28;20034;-55
2023/06/25 11:03:23;;;;;;;7.55;6.32;;;26.10;80.80;;;;;;5031710;28;20021;-55
2023/06/25 11:05:49;;;;;;;7.72;6.28;;;26.10;80.50;;;;;;5029959;28;20459;-53
2023/06/25 11:08:15;;;;;;;7.45;6.75;;;26.10;80.50;;;;;;5030185;28;20032;-55
2023/06/25 11:10:42;;;;;;;8.93;7.35;;;26.10;80.40;;;;;;5030821;28;20469;-55
2023/06/25 11:13:10;;;;;;;7.10;6.20;;;26.10;80.40;;;;;;5030773;28;20022;-55
2023/06/25 11:15:36;;;;;;;7.47;6.68;;;26.00;80.20;;;;;;5030891;28;20029;-55
2023/06/25 11:18:03;;;;;;;7.70;6.90;;;26.00;80.30;;;;;;5031171;28;20034;-55
2023/06/25 11:20:29;;;;;;;7.35;6.60;;;26.00;80.20;;;;;;5031498;28;20488;-55
2023/06/25 11:23:01;;;;;;;7.40;6.57;;;25.90;80.20;;;;;;5031220;28;20025;-56
2023/06/25 11:25:29;;;;;;;7.72;6.93;;;25.80;80.20;;;;;;5031025;28;20125;-55
2023/06/25 11:28:12;;;;;;;7.28;6.57;;;25.80;80.30;;;;;;5029650;28;20022;-56
2023/06/25 11:30:38;;;;;;;7.13;6.00;;;25.70;80.40;;;;;;5029254;28;20030;-54
2023/06/25 11:33:09;;;;;;;7.93;6.57;;;25.70;80.40;;;;;;5029501;28;20025;-55
2023/06/25 11:35:35;;;;;;;8.48;6.90;;;25.60;80.30;;;;;;5031145;28;20029;-55
2023/06/25 11:38:01;;;;;;;7.20;6.30;;;25.60;80.40;;;;;;5030141;28;20049;-55
2023/06/25 11:40:28;;;;;;;7.25;6.18;;;25.60;80.60;;;;;;5030160;28;20061;-55
2023/06/25 11:42:54;;;;;;;6.38;5.43;;;25.50;80.30;;;;;;5030476;28;20416;-55
2023/06/25 11:45:21;;;;;;;6.72;5.90;;;25.50;80.50;;;;;;5028638;28;20104;-54
2023/06/25 11:47:50;;;;;;;7.00;5.85;;;25.40;80.40;;;;;;5026048;28;20112;-56
2023/06/25 11:50:17;;;;;;;6.97;6.07;;;25.40;80.30;;;;;;5028791;28;20030;-56
2023/06/25 11:52:44;;;;;;;6.70;5.47;;;25.40;80.30;;;;;;5028133;28;20022;-55
2023/06/25 11:55:11;;;;;;;7.05;5.85;;;25.40;80.40;;;;;;5028850;28;20026;-55
2023/06/25 11:57:37;;;;;;;6.05;5.45;;;25.30;80.40;;;;;;5028684;28;20028;-53
2023/06/25 12:00:03;;;;;;;7.38;6.00;;;25.30;80.30;;;;;;5028890;28;20465;-55
2023/06/25 12:02:29;;;;;;;6.80;5.75;;;25.30;80.50;;;;;;5029518;28;20030;-55
2023/06/25 12:04:55;;;;;;;6.85;5.57;;;25.30;80.50;;;;;;5028028;28;20052;-55
2023/06/25 12:07:20;;;;;;;6.82;6.15;;;25.30;80.50;;;;;;5027797;28;20489;-55
2023/06/25 12:09:46;;;;;;;8.35;6.10;;;25.30;80.70;;;;;;5027972;28;20029;-54
2023/06/25 12:12:12;;;;;;;7.18;6.10;;;25.20;80.80;;;;;;5029349;28;20037;-54
2023/06/25 12:14:37;;;;;;;7.38;5.88;;;25.30;80.90;;;;;;5027098;28;20087;-50
2023/06/25 12:17:03;;;;;;;7.05;6.35;;;25.20;80.50;;;;;;5028391;28;20073;-55
2023/06/25 12:19:29;;;;;;;6.57;5.90;;;25.30;80.80;;;;;;5030539;28;20021;-55
2023/06/25 12:21:56;;;;;;;7.07;6.22;;;25.30;80.80;;;;;;5030681;28;20078;-56
2023/06/25 12:24:23;;;;;;;6.85;6.15;;;25.30;80.60;;;;;;5030245;28;20557;-54
2023/06/25 12:26:49;;;;;;;6.55;5.90;;;25.30;80.50;;;;;;5030124;28;20048;-55
2023/06/25 12:29:14;;;;;;;7.18;6.38;;;25.30;80.80;;;;;;5031430;28;20025;-55
2023/06/25 12:31:40;;;;;;;7.30;6.35;;;25.40;80.80;;;;;;5032778;28;20116;-55
2023/06/25 12:34:06;;;;;;;7.20;6.50;;;25.40;80.80;;;;;;5032739;28;20478;-53
2023/06/25 12:36:32;;;;;;;7.32;6.53;;;25.40;80.50;;;;;;5032079;28;20119;-55